sensor_id;sensor_type;location;lat;lon;timestamp;P1;durP1;ratioP1;P2;durP2;ratioP2
41263;SDS011;26998;48.714;9.414;2023-03-14T00:01:31;2.08;;;1.45;;
41263;SDS011;26998;48.714;9.414;2023-03-14T00:03:58;2.53;;;1.50;;
41263;SDS011;26998;48.714;9.414;2023-03-14T00:06:25;2.75;;;1.13;;
41263;SDS011;26998;48.714;9.414;2023-03-14T00:08:54;1.85;;;0.90;;
41263;SDS011;26998;48.714;9.414;2023-03-14T00:11:23;4.03;;;1.02;;
41263;SDS011;26998;48.714;9.414;2023-03-14T00:13:50;3.35;;;1.20;;
41263;SDS011;26998;48.714;9.414;2023-03-14T00:16:18;0.82;;;0.75;;
41263;SDS011;26998;48.714;9.414;2023-03-14T00:18:46;1.13;;;0.98;;
41263;SDS011;26998;48.714;9.414;2023-03-14T00:21:14;0.90;;;0.63;;
41263;SDS011;26998;48.714;9.414;2023-03-14T00:23:42;2.88;;;1.02;;
41263;SDS011;26998;48.714;9.414;2023-03-14T00:26:10;1.00;;;0.75;;
41263;SDS011;26998;48.714;9.414;2023-03-14T00:28:39;2.05;;;0.80;;
41263;SDS011;26998;48.714;9.414;2023-03-14T00:31:07;1.02;;;0.75;;
41263;SDS011;26998;48.714;9.414;2023-03-14T00:33:35;1.73;;;1.05;;
41263;SDS011;26998;48.714;9.414;2023-03-14T00:36:03;2.15;;;0.80;;
41263;SDS011;26998;48.714;9.414;2023-03-14T00:38:32;2.55;;;1.38;;
41263;SDS011;26998;48.714;9.414;2023-03-14T00:41:01;2.85;;;1.45;;
41263;SDS011;26998;48.714;9.414;2023-03-14T00:43:30;3.28;;;1.40;;
41263;SDS011;26998;48.714;9.414;2023-03-14T00:45:56;1.42;;;1.02;;
41263;SDS011;26998;48.714;9.414;2023-03-14T00:48:23;1.85;;;1.10;;
41263;SDS011;26998;48.714;9.414;2023-03-14T00:50:50;1.73;;;1.10;;
41263;SDS011;26998;48.714;9.414;2023-03-14T00:53:16;1.70;;;1.05;;
41263;SDS011;26998;48.714;9.414;2023-03-14T00:55:50;2.10;;;1.17;;
41263;SDS011;26998;48.714;9.414;2023-03-14T00:58:17;1.80;;;1.10;;
41263;SDS011;26998;48.714;9.414;2023-03-14T01:00:45;1.88;;;1.02;;
41263;SDS011;26998;48.714;9.414;2023-03-14T01:03:12;0.93;;;0.80;;
41263;SDS011;26998;48.714;9.414;2023-03-14T01:05:40;1.63;;;0.95;;
41263;SDS011;26998;48.714;9.414;2023-03-14T01:08:07;1.33;;;0.75;;
41263;SDS011;26998;48.714;9.414;2023-03-14T01:10:34;1.80;;;0.90;;
41263;SDS011;26998;48.714;9.414;2023-03-14T01:13:04;0.70;;;0.70;;
41263;SDS011;26998;48.714;9.414;2023-03-14T01:15:31;0.77;;;0.73;;
41263;SDS011;26998;48.714;9.414;2023-03-14T01:17:59;0.68;;;0.60;;
41263;SDS011;26998;48.714;9.414;2023-03-14T01:20:26;0.82;;;0.60;;
41263;SDS011;26998;48.714;9.414;2023-03-14T01:22:56;0.63;;;0.50;;
41263;SDS011;26998;48.714;9.414;2023-03-14T01:25:23;1.90;;;0.50;;
41263;SDS011;26998;48.714;9.414;2023-03-14T01:27:49;1.27;;;0.60;;
41263;SDS011;26998;48.714;9.414;2023-03-14T01:30:19;0.40;;;0.40;;
41263;SDS011;26998;48.714;9.414;2023-03-14T01:32:45;0.70;;;0.70;;
41263;SDS011;26998;48.714;9.414;2023-03-14T01:35:12;0.63;;;0.60;;
41263;SDS011;26998;48.714;9.414;2023-03-14T01:37:39;0.75;;;0.52;;
41263;SDS011;26998;48.714;9.414;2023-03-14T01:40:05;0.95;;;0.70;;
41263;SDS011;26998;48.714;9.414;2023-03-14T01:42:32;0.75;;;0.63;;
41263;SDS011;26998;48.714;9.414;2023-03-14T01:45:00;0.68;;;0.50;;
41263;SDS011;26998;48.714;9.414;2023-03-14T01:47:27;0.70;;;0.70;;
41263;SDS011;26998;48.714;9.414;2023-03-14T01:49:55;0.50;;;0.50;;
41263;SDS011;26998;48.714;9.414;2023-03-14T01:52:44;1.30;;;0.52;;
41263;SDS011;26998;48.714;9.414;2023-03-14T01:55:23;0.85;;;0.70;;
41263;SDS011;26998;48.714;9.414;2023-03-14T01:57:54;1.75;;;0.85;;
41263;SDS011;26998;48.714;9.414;2023-03-14T02:00:24;2.55;;;0.70;;
41263;SDS011;26998;48.714;9.414;2023-03-14T02:02:53;1.35;;;0.95;;
41263;SDS011;26998;48.714;9.414;2023-03-14T02:05:28;2.95;;;1.20;;
41263;SDS011;26998;48.714;9.414;2023-03-14T02:07:58;0.85;;;0.75;;
41263;SDS011;26998;48.714;9.414;2023-03-14T02:10:27;0.75;;;0.75;;
41263;SDS011;26998;48.714;9.414;2023-03-14T02:12:56;1.40;;;0.80;;
41263;SDS011;26998;48.714;9.414;2023-03-14T02:15:28;1.63;;;0.80;;
41263;SDS011;26998;48.714;9.414;2023-03-14T02:17:56;1.27;;;0.50;;
41263;SDS011;26998;48.714;9.414;2023-03-14T02:23:25;0.73;;;0.60;;
41263;SDS011;26998;48.714;9.414;2023-03-14T02:26:10;0.50;;;0.50;;
41263;SDS011;26998;48.714;9.414;2023-03-14T02:28:46;0.45;;;0.45;;
41263;SDS011;26998;48.714;9.414;2023-03-14T02:31:13;0.93;;;0.50;;
41263;SDS011;26998;48.714;9.414;2023-03-14T02:33:39;0.65;;;0.50;;
41263;SDS011;26998;48.714;9.414;2023-03-14T02:36:09;4.05;;;0.60;;
41263;SDS011;26998;48.714;9.414;2023-03-14T02:41:12;0.60;;;0.43;;
41263;SDS011;26998;48.714;9.414;2023-03-14T02:43:40;0.70;;;0.40;;
41263;SDS011;26998;48.714;9.414;2023-03-14T02:46:07;1.05;;;0.40;;
41263;SDS011;26998;48.714;9.414;2023-03-14T02:48:43;0.40;;;0.40;;
41263;SDS011;26998;48.714;9.414;2023-03-14T02:51:11;0.38;;;0.38;;
41263;SDS011;26998;48.714;9.414;2023-03-14T02:53:39;1.23;;;0.43;;
41263;SDS011;26998;48.714;9.414;2023-03-14T02:56:07;0.35;;;0.35;;
41263;SDS011;26998;48.714;9.414;2023-03-14T02:58:34;0.50;;;0.50;;
41263;SDS011;26998;48.714;9.414;2023-03-14T03:01:02;0.65;;;0.50;;
41263;SDS011;26998;48.714;9.414;2023-03-14T03:03:29;0.38;;;0.38;;
41263;SDS011;26998;48.714;9.414;2023-03-14T03:05:57;0.32;;;0.32;;
41263;SDS011;26998;48.714;9.414;2023-03-14T03:08:24;0.52;;;0.47;;
41263;SDS011;26998;48.714;9.414;2023-03-14T03:10:53;0.55;;;0.55;;
41263;SDS011;26998;48.714;9.414;2023-03-14T03:13:20;0.70;;;0.40;;
41263;SDS011;26998;48.714;9.414;2023-03-14T03:15:47;0.68;;;0.43;;
41263;SDS011;26998;48.714;9.414;2023-03-14T03:18:13;0.55;;;0.40;;
41263;SDS011;26998;48.714;9.414;2023-03-14T03:20:41;1.58;;;0.68;;
41263;SDS011;26998;48.714;9.414;2023-03-14T03:23:11;2.20;;;0.70;;
41263;SDS011;26998;48.714;9.414;2023-03-14T03:25:37;1.70;;;0.50;;
41263;SDS011;26998;48.714;9.414;2023-03-14T03:28:04;2.30;;;0.70;;
41263;SDS011;26998;48.714;9.414;2023-03-14T03:30:31;0.47;;;0.47;;
41263;SDS011;26998;48.714;9.414;2023-03-14T03:32:57;1.08;;;0.50;;
41263;SDS011;26998;48.714;9.414;2023-03-14T03:35:24;0.70;;;0.50;;
41263;SDS011;26998;48.714;9.414;2023-03-14T03:37:51;0.70;;;0.68;;
41263;SDS011;26998;48.714;9.414;2023-03-14T03:40:17;1.55;;;0.50;;
41263;SDS011;26998;48.714;9.414;2023-03-14T03:42:43;0.82;;;0.55;;
41263;SDS011;26998;48.714;9.414;2023-03-14T03:45:10;5.13;;;0.70;;
41263;SDS011;26998;48.714;9.414;2023-03-14T03:47:36;0.70;;;0.60;;
41263;SDS011;26998;48.714;9.414;2023-03-14T03:50:03;0.85;;;0.60;;
41263;SDS011;26998;48.714;9.414;2023-03-14T03:52:30;0.70;;;0.68;;
41263;SDS011;26998;48.714;9.414;2023-03-14T03:54:56;0.60;;;0.60;;
41263;SDS011;26998;48.714;9.414;2023-03-14T03:57:23;2.33;;;0.80;;
41263;SDS011;26998;48.714;9.414;2023-03-14T03:59:49;0.73;;;0.73;;
41263;SDS011;26998;48.714;9.414;2023-03-14T04:02:16;1.08;;;0.80;;
41263;SDS011;26998;48.714;9.414;2023-03-14T04:04:43;2.17;;;0.73;;
41263;SDS011;26998;48.714;9.414;2023-03-14T04:07:09;1.45;;;0.68;;
41263;SDS011;26998;48.714;9.414;2023-03-14T04:09:37;1.85;;;0.60;;
41263;SDS011;26998;48.714;9.414;2023-03-14T04:12:04;1.77;;;0.80;;
41263;SDS011;26998;48.714;9.414;2023-03-14T04:14:32;0.90;;;0.73;;
41263;SDS011;26998;48.714;9.414;2023-03-14T04:16:59;3.70;;;0.80;;
41263;SDS011;26998;48.714;9.414;2023-03-14T04:19:26;1.27;;;0.60;;
41263;SDS011;26998;48.714;9.414;2023-03-14T04:21:53;2.58;;;0.68;;
41263;SDS011;26998;48.714;9.414;2023-03-14T04:24:19;2.47;;;1.20;;
41263;SDS011;26998;48.714;9.414;2023-03-14T04:26:46;1.77;;;0.90;;
41263;SDS011;26998;48.714;9.414;2023-03-14T04:29:12;1.98;;;0.70;;
41263;SDS011;26998;48.714;9.414;2023-03-14T04:31:38;2.20;;;0.80;;
41263;SDS011;26998;48.714;9.414;2023-03-14T04:34:05;1.10;;;0.90;;
41263;SDS011;26998;48.714;9.414;2023-03-14T04:36:33;1.52;;;0.95;;
41263;SDS011;26998;48.714;9.414;2023-03-14T04:38:59;1.17;;;0.70;;
41263;SDS011;26998;48.714;9.414;2023-03-14T04:41:26;6.10;;;1.15;;
41263;SDS011;26998;48.714;9.414;2023-03-14T04:43:52;2.28;;;0.98;;
41263;SDS011;26998;48.714;9.414;2023-03-14T04:46:19;0.95;;;0.93;;
41263;SDS011;26998;48.714;9.414;2023-03-14T04:48:45;1.10;;;0.80;;
41263;SDS011;26998;48.714;9.414;2023-03-14T04:51:12;2.55;;;0.80;;
41263;SDS011;26998;48.714;9.414;2023-03-14T04:53:39;1.27;;;0.80;;
41263;SDS011;26998;48.714;9.414;2023-03-14T04:56:05;3.70;;;1.20;;
41263;SDS011;26998;48.714;9.414;2023-03-14T04:58:32;3.33;;;0.93;;
41263;SDS011;26998;48.714;9.414;2023-03-14T05:01:02;4.32;;;1.17;;
41263;SDS011;26998;48.714;9.414;2023-03-14T05:03:30;1.30;;;0.90;;
41263;SDS011;26998;48.714;9.414;2023-03-14T05:05:56;5.50;;;1.50;;
41263;SDS011;26998;48.714;9.414;2023-03-14T05:08:23;2.60;;;1.10;;
41263;SDS011;26998;48.714;9.414;2023-03-14T05:10:56;2.90;;;1.20;;
41263;SDS011;26998;48.714;9.414;2023-03-14T05:13:23;1.48;;;0.98;;
41263;SDS011;26998;48.714;9.414;2023-03-14T05:15:50;6.03;;;1.25;;
41263;SDS011;26998;48.714;9.414;2023-03-14T05:18:17;4.18;;;1.35;;
41263;SDS011;26998;48.714;9.414;2023-03-14T05:20:44;3.47;;;1.67;;
41263;SDS011;26998;48.714;9.414;2023-03-14T05:23:10;3.67;;;1.05;;
41263;SDS011;26998;48.714;9.414;2023-03-14T05:25:37;4.38;;;1.25;;
41263;SDS011;26998;48.714;9.414;2023-03-14T05:28:04;4.90;;;1.20;;
41263;SDS011;26998;48.714;9.414;2023-03-14T05:30:30;7.05;;;1.80;;
41263;SDS011;26998;48.714;9.414;2023-03-14T05:32:56;3.67;;;1.30;;
41263;SDS011;26998;48.714;9.414;2023-03-14T05:35:24;2.35;;;1.25;;
41263;SDS011;26998;48.714;9.414;2023-03-14T05:37:50;2.50;;;1.20;;
41263;SDS011;26998;48.714;9.414;2023-03-14T05:40:17;4.07;;;1.15;;
41263;SDS011;26998;48.714;9.414;2023-03-14T05:42:44;3.08;;;1.10;;
41263;SDS011;26998;48.714;9.414;2023-03-14T05:45:10;2.20;;;1.10;;
41263;SDS011;26998;48.714;9.414;2023-03-14T05:47:37;4.07;;;1.05;;
41263;SDS011;26998;48.714;9.414;2023-03-14T05:50:03;2.75;;;0.90;;
41263;SDS011;26998;48.714;9.414;2023-03-14T05:52:33;2.70;;;0.98;;
41263;SDS011;26998;48.714;9.414;2023-03-14T05:55:00;2.97;;;0.80;;
41263;SDS011;26998;48.714;9.414;2023-03-14T05:57:27;7.60;;;1.40;;
41263;SDS011;26998;48.714;9.414;2023-03-14T05:59:53;3.22;;;1.02;;
41263;SDS011;26998;48.714;9.414;2023-03-14T06:02:20;3.95;;;1.10;;
41263;SDS011;26998;48.714;9.414;2023-03-14T06:04:46;5.97;;;1.10;;
41263;SDS011;26998;48.714;9.414;2023-03-14T06:07:13;3.13;;;1.02;;
41263;SDS011;26998;48.714;9.414;2023-03-14T06:09:41;2.53;;;1.00;;
41263;SDS011;26998;48.714;9.414;2023-03-14T06:12:08;2.13;;;1.10;;
41263;SDS011;26998;48.714;9.414;2023-03-14T06:14:35;4.18;;;1.17;;
41263;SDS011;26998;48.714;9.414;2023-03-14T06:17:01;1.88;;;0.80;;
41263;SDS011;26998;48.714;9.414;2023-03-14T06:19:28;1.88;;;1.05;;
41263;SDS011;26998;48.714;9.414;2023-03-14T06:21:56;4.63;;;1.00;;
41263;SDS011;26998;48.714;9.414;2023-03-14T06:24:26;5.25;;;1.25;;
41263;SDS011;26998;48.714;9.414;2023-03-14T06:26:54;4.70;;;1.23;;
41263;SDS011;26998;48.714;9.414;2023-03-14T06:29:21;3.03;;;1.10;;
41263;SDS011;26998;48.714;9.414;2023-03-14T06:31:47;2.95;;;1.48;;
41263;SDS011;26998;48.714;9.414;2023-03-14T06:34:14;2.45;;;1.20;;
41263;SDS011;26998;48.714;9.414;2023-03-14T06:36:41;5.22;;;1.88;;
41263;SDS011;26998;48.714;9.414;2023-03-14T06:39:07;2.08;;;1.13;;
41263;SDS011;26998;48.714;9.414;2023-03-14T06:41:34;5.95;;;1.20;;
41263;SDS011;26998;48.714;9.414;2023-03-14T06:44:00;1.63;;;0.98;;
41263;SDS011;26998;48.714;9.414;2023-03-14T06:46:27;4.28;;;1.35;;
41263;SDS011;26998;48.714;9.414;2023-03-14T06:48:53;1.42;;;0.70;;
41263;SDS011;26998;48.714;9.414;2023-03-14T06:51:20;2.65;;;0.80;;
41263;SDS011;26998;48.714;9.414;2023-03-14T06:53:47;6.13;;;1.08;;
41263;SDS011;26998;48.714;9.414;2023-03-14T06:56:13;2.17;;;0.70;;
41263;SDS011;26998;48.714;9.414;2023-03-14T06:58:40;1.45;;;0.70;;
41263;SDS011;26998;48.714;9.414;2023-03-14T07:01:14;1.17;;;0.80;;
41263;SDS011;26998;48.714;9.414;2023-03-14T07:03:48;3.72;;;1.33;;
41263;SDS011;26998;48.714;9.414;2023-03-14T07:06:14;2.53;;;0.93;;
41263;SDS011;26998;48.714;9.414;2023-03-14T07:08:42;4.53;;;1.17;;
41263;SDS011;26998;48.714;9.414;2023-03-14T07:11:09;5.03;;;1.17;;
41263;SDS011;26998;48.714;9.414;2023-03-14T07:13:35;3.25;;;0.93;;
41263;SDS011;26998;48.714;9.414;2023-03-14T07:16:02;3.72;;;1.10;;
41263;SDS011;26998;48.714;9.414;2023-03-14T07:18:29;3.42;;;0.90;;
41263;SDS011;26998;48.714;9.414;2023-03-14T07:20:55;2.70;;;1.10;;
41263;SDS011;26998;48.714;9.414;2023-03-14T07:23:22;1.35;;;0.90;;
41263;SDS011;26998;48.714;9.414;2023-03-14T07:25:48;1.83;;;1.00;;
41263;SDS011;26998;48.714;9.414;2023-03-14T07:28:18;4.18;;;1.30;;
41263;SDS011;26998;48.714;9.414;2023-03-14T07:30:45;3.08;;;1.48;;
41263;SDS011;26998;48.714;9.414;2023-03-14T07:33:13;2.13;;;1.05;;
41263;SDS011;26998;48.714;9.414;2023-03-14T07:35:39;2.53;;;0.77;;
41263;SDS011;26998;48.714;9.414;2023-03-14T07:38:06;1.90;;;0.60;;
41263;SDS011;26998;48.714;9.414;2023-03-14T07:40:32;3.85;;;0.80;;
41263;SDS011;26998;48.714;9.414;2023-03-14T07:42:59;2.70;;;0.90;;
41263;SDS011;26998;48.714;9.414;2023-03-14T07:45:28;2.70;;;1.05;;
41263;SDS011;26998;48.714;9.414;2023-03-14T07:47:54;1.67;;;0.70;;
41263;SDS011;26998;48.714;9.414;2023-03-14T07:50:21;0.70;;;0.60;;
41263;SDS011;26998;48.714;9.414;2023-03-14T07:52:48;1.95;;;0.63;;
41263;SDS011;26998;48.714;9.414;2023-03-14T07:55:15;9.50;;;1.27;;
41263;SDS011;26998;48.714;9.414;2023-03-14T07:57:42;2.05;;;0.77;;
41263;SDS011;26998;48.714;9.414;2023-03-14T08:00:09;1.25;;;0.50;;
41263;SDS011;26998;48.714;9.414;2023-03-14T08:02:36;1.17;;;0.50;;
41263;SDS011;26998;48.714;9.414;2023-03-14T08:05:03;1.92;;;0.70;;
41263;SDS011;26998;48.714;9.414;2023-03-14T08:07:30;2.75;;;0.80;;
41263;SDS011;26998;48.714;9.414;2023-03-14T08:09:56;0.65;;;0.57;;
41263;SDS011;26998;48.714;9.414;2023-03-14T08:12:23;1.25;;;0.43;;
41263;SDS011;26998;48.714;9.414;2023-03-14T08:14:49;8.90;;;1.10;;
41263;SDS011;26998;48.714;9.414;2023-03-14T08:17:16;1.98;;;0.70;;
41263;SDS011;26998;48.714;9.414;2023-03-14T08:19:45;1.83;;;0.70;;
41263;SDS011;26998;48.714;9.414;2023-03-14T08:22:15;5.10;;;1.33;;
41263;SDS011;26998;48.714;9.414;2023-03-14T08:24:48;4.55;;;0.88;;
41263;SDS011;26998;48.714;9.414;2023-03-14T08:27:15;1.35;;;0.68;;
41263;SDS011;26998;48.714;9.414;2023-03-14T08:29:42;7.95;;;1.52;;
41263;SDS011;26998;48.714;9.414;2023-03-14T08:32:08;3.58;;;1.05;;
41263;SDS011;26998;48.714;9.414;2023-03-14T08:34:35;6.28;;;1.63;;
41263;SDS011;26998;48.714;9.414;2023-03-14T08:37:02;6.28;;;1.05;;
41263;SDS011;26998;48.714;9.414;2023-03-14T08:39:35;1.23;;;0.60;;
41263;SDS011;26998;48.714;9.414;2023-03-14T08:42:02;5.25;;;0.98;;
41263;SDS011;26998;48.714;9.414;2023-03-14T08:44:29;18.10;;;1.90;;
41263;SDS011;26998;48.714;9.414;2023-03-14T08:46:55;1.92;;;0.90;;
41263;SDS011;26998;48.714;9.414;2023-03-14T08:49:22;1.52;;;0.60;;
41263;SDS011;26998;48.714;9.414;2023-03-14T08:51:48;3.33;;;0.90;;
41263;SDS011;26998;48.714;9.414;2023-03-14T08:54:15;4.40;;;0.90;;
41263;SDS011;26998;48.714;9.414;2023-03-14T08:56:42;4.97;;;0.73;;
41263;SDS011;26998;48.714;9.414;2023-03-14T08:59:08;6.55;;;0.80;;
41263;SDS011;26998;48.714;9.414;2023-03-14T09:01:35;2.90;;;1.08;;
41263;SDS011;26998;48.714;9.414;2023-03-14T09:04:02;13.70;;;1.90;;
41263;SDS011;26998;48.714;9.414;2023-03-14T09:06:29;3.97;;;1.10;;
41263;SDS011;26998;48.714;9.414;2023-03-14T09:08:55;2.10;;;0.70;;
41263;SDS011;26998;48.714;9.414;2023-03-14T09:11:22;2.65;;;0.63;;
41263;SDS011;26998;48.714;9.414;2023-03-14T09:13:48;4.07;;;0.90;;
41263;SDS011;26998;48.714;9.414;2023-03-14T09:16:15;1.70;;;0.60;;
41263;SDS011;26998;48.714;9.414;2023-03-14T09:18:41;2.10;;;0.60;;
41263;SDS011;26998;48.714;9.414;2023-03-14T09:21:08;3.67;;;0.85;;
41263;SDS011;26998;48.714;9.414;2023-03-14T09:23:35;2.67;;;0.70;;
41263;SDS011;26998;48.714;9.414;2023-03-14T09:26:01;3.25;;;0.40;;
41263;SDS011;26998;48.714;9.414;2023-03-14T09:28:28;1.00;;;0.35;;
41263;SDS011;26998;48.714;9.414;2023-03-14T09:30:54;3.25;;;0.73;;
41263;SDS011;26998;48.714;9.414;2023-03-14T09:33:21;0.90;;;0.40;;
41263;SDS011;26998;48.714;9.414;2023-03-14T09:35:48;2.90;;;0.90;;
41263;SDS011;26998;48.714;9.414;2023-03-14T09:38:15;2.67;;;0.60;;
41263;SDS011;26998;48.714;9.414;2023-03-14T09:40:42;3.28;;;0.47;;
41263;SDS011;26998;48.714;9.414;2023-03-14T09:43:09;0.50;;;0.50;;
41263;SDS011;26998;48.714;9.414;2023-03-14T09:45:40;0.95;;;0.50;;
41263;SDS011;26998;48.714;9.414;2023-03-14T09:48:14;2.60;;;0.70;;
41263;SDS011;26998;48.714;9.414;2023-03-14T09:50:43;0.55;;;0.40;;
41263;SDS011;26998;48.714;9.414;2023-03-14T09:53:21;2.13;;;0.57;;
41263;SDS011;26998;48.714;9.414;2023-03-14T09:55:52;1.13;;;0.35;;
41263;SDS011;26998;48.714;9.414;2023-03-14T09:58:20;1.40;;;0.38;;
41263;SDS011;26998;48.714;9.414;2023-03-14T10:00:49;3.60;;;0.60;;
41263;SDS011;26998;48.714;9.414;2023-03-14T10:03:25;1.25;;;0.60;;
41263;SDS011;26998;48.714;9.414;2023-03-14T10:05:54;1.02;;;0.50;;
41263;SDS011;26998;48.714;9.414;2023-03-14T10:08:22;2.35;;;0.30;;
41263;SDS011;26998;48.714;9.414;2023-03-14T10:10:51;2.30;;;0.30;;
41263;SDS011;26998;48.714;9.414;2023-03-14T10:13:22;0.77;;;0.52;;
41263;SDS011;26998;48.714;9.414;2023-03-14T10:15:58;0.30;;;0.30;;
41263;SDS011;26998;48.714;9.414;2023-03-14T10:18:28;2.17;;;0.90;;
41263;SDS011;26998;48.714;9.414;2023-03-14T10:21:05;1.55;;;0.50;;
41263;SDS011;26998;48.714;9.414;2023-03-14T10:23:44;4.65;;;0.77;;
41263;SDS011;26998;48.714;9.414;2023-03-14T10:26:18;0.63;;;0.30;;
41263;SDS011;26998;48.714;9.414;2023-03-14T10:28:54;2.10;;;0.55;;
41263;SDS011;26998;48.714;9.414;2023-03-14T10:31:28;1.17;;;0.73;;
41263;SDS011;26998;48.714;9.414;2023-03-14T10:34:15;2.20;;;0.40;;
41263;SDS011;26998;48.714;9.414;2023-03-14T10:42:04;2.13;;;0.52;;
41263;SDS011;26998;48.714;9.414;2023-03-14T10:44:38;4.05;;;0.60;;
41263;SDS011;26998;48.714;9.414;2023-03-14T10:47:15;3.42;;;0.40;;
41263;SDS011;26998;48.714;9.414;2023-03-14T10:49:45;3.05;;;0.50;;
41263;SDS011;26998;48.714;9.414;2023-03-14T10:54:41;1.73;;;0.70;;
41263;SDS011;26998;48.714;9.414;2023-03-14T10:57:07;0.95;;;0.30;;
41263;SDS011;26998;48.714;9.414;2023-03-14T10:59:37;2.13;;;0.65;;
41263;SDS011;26998;48.714;9.414;2023-03-14T11:07:47;1.35;;;0.40;;
41263;SDS011;26998;48.714;9.414;2023-03-14T11:10:18;0.55;;;0.30;;
41263;SDS011;26998;48.714;9.414;2023-03-14T11:15:37;1.85;;;0.43;;
41263;SDS011;26998;48.714;9.414;2023-03-14T11:27:07;0.22;;;0.20;;
41263;SDS011;26998;48.714;9.414;2023-03-14T11:35:22;0.30;;;0.30;;
41263;SDS011;26998;48.714;9.414;2023-03-14T11:38:01;1.33;;;0.40;;
41263;SDS011;26998;48.714;9.414;2023-03-14T11:40:38;1.55;;;0.50;;
41263;SDS011;26998;48.714;9.414;2023-03-14T11:43:09;1.55;;;0.93;;
41263;SDS011;26998;48.714;9.414;2023-03-14T11:45:41;2.35;;;1.67;;
41263;SDS011;26998;48.714;9.414;2023-03-14T11:50:55;0.70;;;0.70;;
41263;SDS011;26998;48.714;9.414;2023-03-14T11:53:29;1.70;;;0.40;;
41263;SDS011;26998;48.714;9.414;2023-03-14T11:59:03;1.73;;;0.30;;
41263;SDS011;26998;48.714;9.414;2023-03-14T12:01:57;0.40;;;0.30;;
41263;SDS011;26998;48.714;9.414;2023-03-14T12:07:34;0.50;;;0.30;;
41263;SDS011;26998;48.714;9.414;2023-03-14T12:12:36;0.73;;;0.38;;
41263;SDS011;26998;48.714;9.414;2023-03-14T12:15:03;0.35;;;0.22;;
41263;SDS011;26998;48.714;9.414;2023-03-14T12:17:38;2.70;;;0.52;;
41263;SDS011;26998;48.714;9.414;2023-03-14T12:20:16;5.28;;;0.50;;
41263;SDS011;26998;48.714;9.414;2023-03-14T12:25:22;0.30;;;0.30;;
41263;SDS011;26998;48.714;9.414;2023-03-14T12:30:27;0.95;;;0.28;;
41263;SDS011;26998;48.714;9.414;2023-03-14T12:35:42;0.60;;;0.55;;
41263;SDS011;26998;48.714;9.414;2023-03-14T12:41:06;1.45;;;0.57;;
41263;SDS011;26998;48.714;9.414;2023-03-14T12:43:51;0.30;;;0.30;;
41263;SDS011;26998;48.714;9.414;2023-03-14T12:51:43;3.53;;;1.10;;
41263;SDS011;26998;48.714;9.414;2023-03-14T12:54:14;2.90;;;0.50;;
41263;SDS011;26998;48.714;9.414;2023-03-14T12:59:38;3.05;;;1.10;;
41263;SDS011;26998;48.714;9.414;2023-03-14T13:02:17;3.38;;;1.55;;
41263;SDS011;26998;48.714;9.414;2023-03-14T13:04:49;2.72;;;1.35;;
41263;SDS011;26998;48.714;9.414;2023-03-14T13:07:31;3.35;;;1.17;;
41263;SDS011;26998;48.714;9.414;2023-03-14T13:10:25;2.70;;;1.23;;
41263;SDS011;26998;48.714;9.414;2023-03-14T13:12:54;1.20;;;0.82;;
41263;SDS011;26998;48.714;9.414;2023-03-14T13:15:27;2.03;;;1.00;;
41263;SDS011;26998;48.714;9.414;2023-03-14T13:23:42;3.42;;;1.08;;
41263;SDS011;26998;48.714;9.414;2023-03-14T13:26:35;2.08;;;1.10;;
41263;SDS011;26998;48.714;9.414;2023-03-14T13:29:20;7.38;;;2.22;;
41263;SDS011;26998;48.714;9.414;2023-03-14T13:31:52;4.53;;;1.50;;
41263;SDS011;26998;48.714;9.414;2023-03-14T13:34:21;6.25;;;1.42;;
41263;SDS011;26998;48.714;9.414;2023-03-14T13:36:52;3.75;;;0.80;;
41263;SDS011;26998;48.714;9.414;2023-03-14T13:39:20;1.67;;;0.88;;
41263;SDS011;26998;48.714;9.414;2023-03-14T13:41:48;7.95;;;2.17;;
41263;SDS011;26998;48.714;9.414;2023-03-14T13:44:17;3.38;;;0.82;;
41263;SDS011;26998;48.714;9.414;2023-03-14T13:47:03;4.03;;;0.95;;
41263;SDS011;26998;48.714;9.414;2023-03-14T13:49:32;2.88;;;0.80;;
41263;SDS011;26998;48.714;9.414;2023-03-14T13:51:59;6.93;;;0.93;;
41263;SDS011;26998;48.714;9.414;2023-03-14T13:54:26;2.53;;;0.93;;
41263;SDS011;26998;48.714;9.414;2023-03-14T13:57:00;3.80;;;1.10;;
41263;SDS011;26998;48.714;9.414;2023-03-14T13:59:31;4.28;;;0.93;;
41263;SDS011;26998;48.714;9.414;2023-03-14T14:02:15;1.98;;;0.88;;
41263;SDS011;26998;48.714;9.414;2023-03-14T14:04:43;3.78;;;1.05;;
41263;SDS011;26998;48.714;9.414;2023-03-14T14:07:13;4.20;;;1.08;;
41263;SDS011;26998;48.714;9.414;2023-03-14T14:09:42;3.08;;;0.82;;
41263;SDS011;26998;48.714;9.414;2023-03-14T14:12:17;4.68;;;0.70;;
41263;SDS011;26998;48.714;9.414;2023-03-14T14:14:52;3.72;;;0.95;;
41263;SDS011;26998;48.714;9.414;2023-03-14T14:17:29;3.58;;;1.20;;
41263;SDS011;26998;48.714;9.414;2023-03-14T14:19:59;2.80;;;1.00;;
41263;SDS011;26998;48.714;9.414;2023-03-14T14:22:28;8.15;;;1.33;;
41263;SDS011;26998;48.714;9.414;2023-03-14T14:24:56;6.28;;;0.80;;
41263;SDS011;26998;48.714;9.414;2023-03-14T14:27:39;3.78;;;0.82;;
41263;SDS011;26998;48.714;9.414;2023-03-14T14:32:44;4.53;;;0.95;;
41263;SDS011;26998;48.714;9.414;2023-03-14T14:35:30;6.18;;;0.90;;
41263;SDS011;26998;48.714;9.414;2023-03-14T14:37:59;3.35;;;0.80;;
41263;SDS011;26998;48.714;9.414;2023-03-14T14:40:29;5.85;;;1.65;;
41263;SDS011;26998;48.714;9.414;2023-03-14T14:43:03;5.55;;;1.40;;
41263;SDS011;26998;48.714;9.414;2023-03-14T14:45:33;8.18;;;2.30;;
41263;SDS011;26998;48.714;9.414;2023-03-14T14:52:58;2.67;;;0.80;;
41263;SDS011;26998;48.714;9.414;2023-03-14T14:55:31;9.98;;;2.75;;
41263;SDS011;26998;48.714;9.414;2023-03-14T14:58:11;6.00;;;2.20;;
41263;SDS011;26998;48.714;9.414;2023-03-14T15:00:40;12.48;;;4.35;;
41263;SDS011;26998;48.714;9.414;2023-03-14T15:03:10;11.40;;;4.80;;
41263;SDS011;26998;48.714;9.414;2023-03-14T15:05:40;9.07;;;4.20;;
41263;SDS011;26998;48.714;9.414;2023-03-14T15:08:10;11.35;;;1.95;;
41263;SDS011;26998;48.714;9.414;2023-03-14T15:10:37;7.15;;;1.77;;
41263;SDS011;26998;48.714;9.414;2023-03-14T15:13:04;5.75;;;1.60;;
41263;SDS011;26998;48.714;9.414;2023-03-14T15:15:30;3.72;;;1.30;;
41263;SDS011;26998;48.714;9.414;2023-03-14T15:17:57;3.40;;;1.25;;
41263;SDS011;26998;48.714;9.414;2023-03-14T15:20:23;4.53;;;1.75;;
41263;SDS011;26998;48.714;9.414;2023-03-14T15:22:50;2.03;;;1.00;;
41263;SDS011;26998;48.714;9.414;2023-03-14T15:25:17;4.93;;;1.30;;
41263;SDS011;26998;48.714;9.414;2023-03-14T15:28:13;5.70;;;1.50;;
41263;SDS011;26998;48.714;9.414;2023-03-14T15:30:44;7.05;;;1.80;;
41263;SDS011;26998;48.714;9.414;2023-03-14T15:33:11;3.83;;;1.30;;
41263;SDS011;26998;48.714;9.414;2023-03-14T15:35:37;5.03;;;1.30;;
41263;SDS011;26998;48.714;9.414;2023-03-14T15:38:04;4.65;;;1.20;;
41263;SDS011;26998;48.714;9.414;2023-03-14T15:40:31;3.17;;;1.23;;
41263;SDS011;26998;48.714;9.414;2023-03-14T15:42:57;5.70;;;1.77;;
41263;SDS011;26998;48.714;9.414;2023-03-14T15:45:24;4.53;;;1.45;;
41263;SDS011;26998;48.714;9.414;2023-03-14T15:47:50;3.67;;;1.08;;
41263;SDS011;26998;48.714;9.414;2023-03-14T15:50:17;7.00;;;1.35;;
41263;SDS011;26998;48.714;9.414;2023-03-14T15:52:45;1.67;;;1.10;;
41263;SDS011;26998;48.714;9.414;2023-03-14T15:55:11;5.07;;;1.35;;
41263;SDS011;26998;48.714;9.414;2023-03-14T15:57:38;2.22;;;0.90;;
41263;SDS011;26998;48.714;9.414;2023-03-14T16:00:05;4.90;;;1.35;;
41263;SDS011;26998;48.714;9.414;2023-03-14T16:02:33;3.20;;;1.05;;
41263;SDS011;26998;48.714;9.414;2023-03-14T16:05:00;3.30;;;1.10;;
41263;SDS011;26998;48.714;9.414;2023-03-14T16:07:27;9.45;;;2.35;;
41263;SDS011;26998;48.714;9.414;2023-03-14T16:09:53;3.97;;;1.45;;
41263;SDS011;26998;48.714;9.414;2023-03-14T16:12:20;3.97;;;1.67;;
41263;SDS011;26998;48.714;9.414;2023-03-14T16:14:47;4.65;;;1.45;;
41263;SDS011;26998;48.714;9.414;2023-03-14T16:17:14;1.58;;;0.80;;
41263;SDS011;26998;48.714;9.414;2023-03-14T16:19:40;3.55;;;1.00;;